West Henrietta, New York
Current Conditions -  °F | °C
As of 4:54 PM on Sunday 25 Jan 2015 (Local Time) from KROC Reporting Station
Scattered Clouds Scattered Clouds  
Wind Chill:   Ceiling: Unl
Heat Index: 18°   Visibility: 10mi
Dew Point:   Wind: 7mph
Humidity: 57%   Direction: 30°NNE
Pressure: 29.98"   Gusts: NA
Location:  43.04°N, 77.66°W
Report Text: KROC 252154Z 03006KT 10SM FEW200 SCT250 M08/M15 A2998 RMK AO2 SLP165 T10781150
Loading
Personal Weather Stations






























Interactive Weather Map New forecast layout! Learn more

10-Day Weather Forecast

Advertisements
Track Severe Weather on mobile